Time;durP1;ratioP1;P1;durP2;ratioP2;P2;SDS_P1;SDS_P2;PMS_P1;PMS_P2;Temp;Humidity;BMP_temperature;BMP_pressure;BME280_temperature;BME280_humidity;BME280_pressure;Samples;Min_cycle;Max_cycle;Signal;HPM_P1;HPM_P2
2022/04/02 00:01:53;;;;;;;9.60;6.77;;;1.70;99.90;;;;;;10460354;28;20688;-72
2022/04/02 00:06:54;;;;;;;8.97;7.00;;;1.70;99.90;;;;;;10458543;28;20559;-72
2022/04/02 00:11:54;;;;;;;9.87;7.70;;;1.70;99.90;;;;;;10454362;28;20264;-72
2022/04/02 00:16:55;;;;;;;8.07;6.93;;;1.60;99.90;;;;;;10456460;28;20662;-71
2022/04/02 00:21:56;;;;;;;8.60;7.10;;;1.60;99.90;;;;;;10454196;28;20228;-72
2022/04/02 00:26:57;;;;;;;7.93;6.67;;;1.60;99.90;;;;;;10473168;28;20216;-71
2022/04/02 00:31:57;;;;;;;7.67;6.87;;;1.70;99.90;;;;;;10460718;28;20335;-71
2022/04/02 00:37:01;;;;;;;11.37;6.10;;;1.60;99.90;;;;;;10461529;28;20226;-72
2022/04/02 00:42:02;;;;;;;8.40;5.70;;;1.60;99.90;;;;;;10457081;28;20618;-71
2022/04/02 00:47:06;;;;;;;10.60;6.17;;;1.60;99.90;;;;;;10456790;28;20220;-72
2022/04/02 00:52:07;;;;;;;6.87;5.37;;;1.60;99.90;;;;;;10455364;28;20224;-72
2022/04/02 00:57:08;;;;;;;7.23;4.80;;;1.60;99.90;;;;;;10460431;28;20223;-71
2022/04/02 01:02:09;;;;;;;7.90;4.70;;;1.50;99.90;;;;;;10447329;28;20216;-73
2022/04/02 01:07:10;;;;;;;5.93;4.77;;;1.50;99.90;;;;;;10462716;28;20226;-72
2022/04/02 01:12:11;;;;;;;5.43;4.23;;;1.50;99.90;;;;;;10455298;28;20239;-73
2022/04/02 01:17:12;;;;;;;7.30;4.40;;;1.50;99.90;;;;;;10462125;28;20257;-72
2022/04/02 01:22:12;;;;;;;6.73;4.37;;;1.40;99.90;;;;;;10452622;28;20265;-72
2022/04/02 01:27:13;;;;;;;5.70;4.00;;;1.40;99.90;;;;;;10469380;28;20240;-71
2022/04/02 01:32:14;;;;;;;6.50;4.20;;;1.40;99.90;;;;;;10459522;28;20889;-72
2022/04/02 01:37:21;;;;;;;7.53;4.20;;;1.40;99.90;;;;;;10467827;28;20273;-71
2022/04/02 01:42:24;;;;;;;6.10;4.10;;;1.40;99.90;;;;;;10450322;28;20234;-72
2022/04/02 01:47:31;;;;;;;8.00;4.13;;;1.40;99.90;;;;;;10453364;28;20227;-72
2022/04/02 01:52:31;;;;;;;4.80;3.97;;;1.40;99.90;;;;;;10458616;28;20690;-71
2022/04/02 01:57:32;;;;;;;6.07;4.40;;;1.40;99.90;;;;;;10451756;28;20240;-72
2022/04/02 02:02:33;;;;;;;6.43;4.50;;;1.40;99.90;;;;;;10456125;28;20272;-72
2022/04/02 02:07:33;;;;;;;6.17;4.27;;;1.40;99.90;;;;;;10449757;28;20216;-72
2022/04/02 02:12:34;;;;;;;7.20;4.63;;;1.40;99.90;;;;;;10450789;28;20225;-72
2022/04/02 02:17:35;;;;;;;9.10;5.00;;;1.30;99.90;;;;;;10452378;28;20212;-72
2022/04/02 02:22:35;;;;;;;7.50;4.57;;;1.30;99.90;;;;;;10451192;28;20239;-71
2022/04/02 02:27:37;;;;;;;6.10;4.20;;;1.30;99.90;;;;;;10453091;28;20307;-72
2022/04/02 02:32:38;;;;;;;5.83;4.53;;;1.30;99.90;;;;;;10456137;28;20214;-72
2022/04/02 02:37:39;;;;;;;5.37;4.07;;;1.30;99.90;;;;;;10451632;28;20579;-72
2022/04/02 02:42:40;;;;;;;6.83;4.73;;;1.30;99.90;;;;;;10454547;28;20272;-72
2022/04/02 02:47:41;;;;;;;6.77;4.10;;;1.30;99.90;;;;;;10457228;28;20223;-72
2022/04/02 02:52:44;;;;;;;5.97;4.70;;;1.20;99.90;;;;;;10453534;28;20215;-71
2022/04/02 02:57:46;;;;;;;5.83;4.17;;;1.20;99.90;;;;;;10456355;28;20227;-71
2022/04/02 03:02:47;;;;;;;6.20;4.20;;;1.20;99.90;;;;;;10464536;28;20227;-71
2022/04/02 03:07:49;;;;;;;7.20;4.47;;;1.20;99.90;;;;;;10456171;28;20624;-72
2022/04/02 03:12:54;;;;;;;9.13;5.23;;;1.20;99.90;;;;;;10451013;28;20223;-72
2022/04/02 03:18:02;;;;;;;5.83;4.33;;;1.20;99.90;;;;;;10450971;28;20306;-72
2022/04/02 03:23:05;;;;;;;8.30;5.10;;;1.10;99.90;;;;;;10448165;28;20219;-72
2022/04/02 03:28:06;;;;;;;8.33;4.77;;;1.10;99.90;;;;;;10459181;28;20216;-73
2022/04/02 03:33:08;;;;;;;7.30;4.73;;;1.10;99.90;;;;;;10455275;28;20223;-71
2022/04/02 03:38:09;;;;;;;7.37;4.70;;;1.10;99.90;;;;;;10451392;28;20226;-72
2022/04/02 03:43:09;;;;;;;6.80;5.40;;;1.00;99.90;;;;;;10450333;28;20706;-72
2022/04/02 03:48:18;;;;;;;9.33;4.90;;;1.00;99.90;;;;;;10452112;28;20786;-72
2022/04/02 03:53:19;;;;;;;7.13;4.67;;;1.00;99.90;;;;;;10457874;28;20581;-72
2022/04/02 03:58:20;;;;;;;9.10;4.97;;;1.00;99.90;;;;;;10457121;28;20234;-71
2022/04/02 04:03:20;;;;;;;8.07;5.30;;;1.00;99.90;;;;;;10457743;28;20227;-71
2022/04/02 04:08:24;;;;;;;9.60;5.27;;;1.00;99.90;;;;;;10456574;28;20227;-71
2022/04/02 04:13:25;;;;;;;10.57;5.33;;;1.00;99.90;;;;;;10465532;28;20227;-72
2022/04/02 04:18:26;;;;;;;6.57;4.80;;;1.00;99.90;;;;;;10456935;28;20212;-71
2022/04/02 04:23:27;;;;;;;7.27;4.93;;;1.00;99.90;;;;;;10463925;28;20231;-71
2022/04/02 04:28:28;;;;;;;8.87;5.20;;;1.00;99.90;;;;;;10456503;28;20269;-71
2022/04/02 04:33:29;;;;;;;7.60;5.20;;;0.90;99.90;;;;;;10456553;28;20230;-71
2022/04/02 04:38:30;;;;;;;8.53;5.50;;;0.90;99.90;;;;;;10456780;28;20223;-72
2022/04/02 04:43:31;;;;;;;6.80;5.43;;;0.90;99.90;;;;;;10455607;28;20744;-73
2022/04/02 04:48:38;;;;;;;8.30;5.60;;;0.90;99.90;;;;;;10458604;28;20258;-73
2022/04/02 04:53:42;;;;;;;7.80;5.03;;;0.90;99.90;;;;;;10463461;28;20650;-71
2022/04/02 04:58:43;;;;;;;8.23;5.60;;;0.80;99.90;;;;;;10453769;28;20275;-72
2022/04/02 05:03:45;;;;;;;10.43;5.27;;;0.80;99.90;;;;;;10451985;28;20224;-70
2022/04/02 05:08:46;;;;;;;11.63;5.53;;;0.80;99.90;;;;;;10453762;28;20212;-70
2022/04/02 05:13:47;;;;;;;9.47;5.63;;;0.80;99.90;;;;;;10451221;28;20220;-70
2022/04/02 05:18:54;;;;;;;6.80;4.87;;;0.90;99.90;;;;;;10457269;28;20227;-71
2022/04/02 05:23:54;;;;;;;6.70;5.53;;;0.80;99.90;;;;;;10450216;28;20270;-71
2022/04/02 05:28:56;;;;;;;10.40;5.13;;;0.80;99.90;;;;;;10450193;28;20717;-71
2022/04/02 05:33:56;;;;;;;8.70;4.80;;;0.80;99.90;;;;;;10454473;28;20223;-71
2022/04/02 05:38:57;;;;;;;9.20;6.00;;;0.80;99.90;;;;;;10454941;28;20697;-71
2022/04/02 05:43:57;;;;;;;9.23;5.83;;;0.80;99.90;;;;;;10455140;28;20235;-71
2022/04/02 05:48:59;;;;;;;7.33;5.30;;;0.80;99.90;;;;;;10456766;28;20211;-72
2022/04/02 05:54:00;;;;;;;8.13;5.40;;;0.90;99.90;;;;;;10451801;28;20698;-71
2022/04/02 05:59:02;;;;;;;8.13;5.37;;;1.00;99.90;;;;;;10453452;28;20257;-70
2022/04/02 06:04:03;;;;;;;7.23;4.60;;;1.00;99.90;;;;;;10450599;28;20218;-72
2022/04/02 06:09:04;;;;;;;6.53;4.77;;;1.00;99.90;;;;;;10456006;28;20220;-71
2022/04/02 06:14:04;;;;;;;8.57;5.57;;;1.00;99.90;;;;;;10449885;28;20286;-71
2022/04/02 06:19:05;;;;;;;5.87;5.00;;;1.10;99.90;;;;;;10454428;28;20219;-71
2022/04/02 06:24:06;;;;;;;9.20;4.50;;;1.20;99.90;;;;;;10445836;28;20260;-71
2022/04/02 06:29:07;;;;;;;6.20;4.57;;;1.20;99.90;;;;;;10454993;28;20991;-71
2022/04/02 06:34:08;;;;;;;6.13;4.70;;;1.30;99.90;;;;;;10446993;28;20220;-71
2022/04/02 06:39:08;;;;;;;7.20;4.93;;;1.30;99.90;;;;;;10454529;28;20567;-70
2022/04/02 06:44:09;;;;;;;7.63;5.67;;;1.40;99.90;;;;;;10449063;28;20223;-71
2022/04/02 06:49:10;;;;;;;9.37;5.47;;;1.30;99.90;;;;;;10459838;28;20268;-71
2022/04/02 06:54:10;;;;;;;8.70;6.00;;;1.30;99.90;;;;;;10447456;28;20563;-71
2022/04/02 06:59:11;;;;;;;8.33;6.10;;;1.40;99.90;;;;;;10452667;28;20215;-72
2022/04/02 07:04:11;;;;;;;13.63;6.47;;;1.40;99.90;;;;;;10447160;28;20253;-71
2022/04/02 07:09:17;;;;;;;8.73;6.13;;;1.40;99.90;;;;;;10480932;28;20278;-71
2022/04/02 07:14:17;;;;;;;12.27;6.63;;;1.40;99.90;;;;;;10445974;28;20216;-72
2022/04/02 07:19:27;;;;;;;7.60;5.70;;;1.40;99.90;;;;;;10484996;28;20577;-71
2022/04/02 07:24:32;;;;;;;7.43;5.37;;;1.60;99.90;;;;;;10439973;28;20262;-72
2022/04/02 07:29:33;;;;;;;6.03;5.03;;;1.70;99.90;;;;;;10442440;28;20216;-71
2022/04/02 07:34:34;;;;;;;7.10;4.43;;;1.90;99.90;;;;;;10455427;28;20578;-72
2022/04/02 07:39:48;;;;;;;5.73;3.93;;;2.20;99.90;;;;;;10459527;28;20212;-71
2022/04/02 07:45:05;;;;;;;6.70;4.33;;;2.30;99.90;;;;;;10456884;28;20278;-71
2022/04/02 07:50:13;;;;;;;6.90;4.13;;;2.40;99.90;;;;;;10454833;28;20243;-71
2022/04/02 07:55:15;;;;;;;4.50;3.63;;;2.60;99.90;;;;;;10458080;28;20176;-71
2022/04/02 08:00:20;;;;;;;6.63;3.70;;;2.70;99.90;;;;;;10456017;28;20238;-72
2022/04/02 08:05:22;;;;;;;4.17;3.47;;;2.80;99.90;;;;;;10454305;28;20216;-70
2022/04/02 08:10:25;;;;;;;4.83;3.07;;;3.00;99.90;;;;;;10454723;28;20182;-71
2022/04/02 08:15:26;;;;;;;5.30;3.37;;;3.40;99.90;;;;;;10454843;28;20302;-71
2022/04/02 08:20:27;;;;;;;7.30;3.83;;;3.40;99.90;;;;;;10451226;28;20302;-70
2022/04/02 08:25:28;;;;;;;4.90;3.77;;;3.30;99.90;;;;;;10453121;28;20231;-72
2022/04/02 08:30:33;;;;;;;6.23;3.50;;;3.30;99.90;;;;;;10448113;28;20239;-72
2022/04/02 08:35:51;;;;;;;5.97;3.23;;;3.50;99.90;;;;;;10455947;28;20643;-71
2022/04/02 08:41:28;;;;;;;3.77;3.00;;;3.80;99.90;;;;;;10457538;28;20224;-72
2022/04/02 08:46:54;;;;;;;4.93;3.00;;;4.10;99.90;;;;;;10456746;28;20227;-71
2022/04/02 08:52:14;;;;;;;8.20;3.47;;;4.30;99.90;;;;;;10452169;28;20269;-70
2022/04/02 08:57:42;;;;;;;8.30;3.50;;;4.10;99.90;;;;;;10449147;28;20218;-70
2022/04/02 09:03:06;;;;;;;5.03;3.27;;;4.30;99.90;;;;;;10481791;28;20230;-71
2022/04/02 09:08:10;;;;;;;3.97;2.90;;;4.50;99.90;;;;;;10438052;28;20223;-71
2022/04/02 09:13:16;;;;;;;5.53;4.00;;;4.20;99.90;;;;;;10453057;28;20227;-71
2022/04/02 09:18:28;;;;;;;6.50;3.60;;;4.40;99.90;;;;;;10445412;28;20310;-70
2022/04/02 09:23:55;;;;;;;4.70;3.40;;;4.30;99.90;;;;;;10445974;28;20228;-71
2022/04/02 09:29:13;;;;;;;6.03;3.40;;;4.30;99.90;;;;;;10447808;28;20268;-71
2022/04/02 09:34:35;;;;;;;6.03;3.70;;;4.50;99.90;;;;;;10449636;28;20226;-71
2022/04/02 09:39:53;;;;;;;5.90;3.80;;;4.60;99.90;;;;;;10444243;28;20212;-71
2022/04/02 09:44:58;;;;;;;4.37;3.43;;;5.00;99.90;;;;;;10455046;28;20224;-71
2022/04/02 09:50:15;;;;;;;5.67;3.20;;;5.20;99.90;;;;;;10454306;28;20751;-71
2022/04/02 09:55:38;;;;;;;6.93;4.03;;;5.10;99.90;;;;;;10461286;28;20224;-71
2022/04/02 10:01:03;;;;;;;7.07;3.97;;;5.30;99.90;;;;;;10448298;28;20306;-70
2022/04/02 10:06:25;;;;;;;4.20;3.40;;;5.60;99.90;;;;;;10457759;28;20232;-71
2022/04/02 10:11:28;;;;;;;5.57;3.53;;;6.20;99.90;;;;;;10468726;28;20219;-70
2022/04/02 10:16:31;;;;;;;6.10;3.17;;;6.30;99.90;;;;;;10454049;28;20233;-71
2022/04/02 10:21:35;;;;;;;3.80;2.73;;;6.80;99.90;;;;;;10449882;28;20306;-70
2022/04/02 10:26:39;;;;;;;5.57;3.20;;;7.90;99.90;;;;;;10453357;28;20230;-71
2022/04/02 10:31:57;;;;;;;5.20;3.00;;;8.00;99.90;;;;;;10449655;28;20309;-70
2022/04/02 10:37:16;;;;;;;3.83;3.17;;;6.60;99.90;;;;;;10453887;28;20298;-70
2022/04/02 10:42:32;;;;;;;5.10;3.43;;;6.00;99.90;;;;;;10453772;28;20320;-71
2022/04/02 10:47:38;;;;;;;4.70;3.20;;;6.30;99.90;;;;;;10452987;28;20707;-71
2022/04/02 10:52:42;;;;;;;8.10;3.60;;;6.30;99.90;;;;;;10448313;28;20718;-71
2022/04/02 10:57:42;;;;;;;5.63;4.20;;;5.90;99.90;;;;;;10453372;28;20256;-71
2022/04/02 11:02:49;;;;;;;5.90;3.10;;;5.80;99.90;;;;;;10449150;28;20232;-71
2022/04/02 11:07:51;;;;;;;7.53;3.90;;;5.50;99.90;;;;;;10444448;28;20224;-70
2022/04/02 11:13:00;;;;;;;4.80;3.87;;;5.50;99.90;;;;;;10436428;28;20240;-71
2022/04/02 11:18:01;;;;;;;4.90;3.70;;;5.40;99.90;;;;;;10451428;28;20250;-70
2022/04/02 11:23:17;;;;;;;5.33;3.70;;;5.40;99.90;;;;;;10447353;28;20229;-69
2022/04/02 11:28:20;;;;;;;5.07;3.90;;;5.50;99.90;;;;;;10442903;28;20368;-69
2022/04/02 11:33:24;;;;;;;4.97;3.80;;;5.60;99.90;;;;;;10447164;28;20216;-70
2022/04/02 11:38:35;;;;;;;4.67;3.77;;;5.80;99.90;;;;;;10441609;28;20231;-69
2022/04/02 11:43:41;;;;;;;4.80;3.33;;;5.90;99.90;;;;;;10453388;28;20227;-68
2022/04/02 11:49:01;;;;;;;4.93;3.50;;;6.30;99.90;;;;;;10450988;28;20276;-71
2022/04/02 11:54:07;;;;;;;6.23;3.60;;;6.40;99.90;;;;;;10454172;28;20258;-69
2022/04/02 11:59:13;;;;;;;5.77;4.20;;;6.30;99.90;;;;;;10451248;28;20224;-69
2022/04/02 12:04:15;;;;;;;6.50;4.20;;;6.20;99.90;;;;;;10453794;28;20224;-72
2022/04/02 12:09:20;;;;;;;4.83;4.00;;;6.30;99.90;;;;;;10455425;28;20223;-71
2022/04/02 12:14:38;;;;;;;7.13;3.53;;;6.30;99.90;;;;;;10454901;28;20219;-70
2022/04/02 12:19:51;;;;;;;6.10;3.50;;;6.70;99.90;;;;;;10446685;28;20847;-73
2022/04/02 12:25:01;;;;;;;6.07;3.70;;;6.60;99.90;;;;;;10459139;28;20224;-71
2022/04/02 12:30:08;;;;;;;4.83;3.57;;;6.50;99.90;;;;;;10445496;28;20213;-72
2022/04/02 12:35:15;;;;;;;4.80;3.43;;;6.50;99.90;;;;;;10462942;28;20223;-73
2022/04/02 12:40:19;;;;;;;7.57;4.10;;;6.80;99.90;;;;;;10446216;28;20185;-73
2022/04/02 12:45:23;;;;;;;8.87;4.10;;;7.00;99.90;;;;;;10453352;28;20272;-72
2022/04/02 12:50:23;;;;;;;7.70;3.90;;;6.90;99.90;;;;;;10461810;28;21763;-72
2022/04/02 12:55:29;;;;;;;5.90;3.70;;;6.80;99.90;;;;;;10444082;28;20232;-74
2022/04/02 13:00:39;;;;;;;5.50;3.90;;;6.60;99.90;;;;;;10461545;28;20683;-73
2022/04/02 13:05:48;;;;;;;5.83;4.03;;;7.00;99.90;;;;;;10437050;28;20234;-74
2022/04/02 13:11:01;;;;;;;7.80;4.43;;;7.00;99.90;;;;;;10448979;28;20217;-73
2022/04/02 13:16:07;;;;;;;7.13;4.10;;;7.20;99.90;;;;;;10453021;28;20256;-71
2022/04/02 13:21:09;;;;;;;5.47;4.13;;;6.70;99.90;;;;;;10452772;28;20281;-71
2022/04/02 13:26:13;;;;;;;5.93;3.20;;;6.80;99.90;;;;;;10441023;28;20596;-71
2022/04/02 13:31:16;;;;;;;6.07;3.37;;;6.70;99.90;;;;;;10440961;28;20230;-71
2022/04/02 13:36:54;;;;;;;6.17;3.37;;;6.70;99.90;;;;;;10434272;28;20696;-71
2022/04/02 13:41:57;;;;;;;5.10;3.33;;;7.10;99.90;;;;;;10442259;28;20235;-70
2022/04/02 13:47:08;;;;;;;3.90;3.00;;;7.00;99.90;;;;;;10435948;28;20941;-70
2022/04/02 13:52:11;;;;;;;5.13;3.20;;;7.00;99.90;;;;;;10453286;28;20366;-71
2022/04/02 13:57:19;;;;;;;5.63;3.40;;;6.90;99.90;;;;;;10446499;28;20442;-72
2022/04/02 14:02:25;;;;;;;6.50;3.80;;;6.50;99.90;;;;;;10456463;28;20310;-72
2022/04/02 14:07:30;;;;;;;4.83;3.47;;;6.10;99.90;;;;;;10446609;28;20216;-70
2022/04/02 14:12:38;;;;;;;4.87;3.40;;;6.00;99.90;;;;;;10442734;28;20243;-70
2022/04/02 14:17:45;;;;;;;5.07;3.40;;;6.50;99.90;;;;;;10437093;28;20224;-72
2022/04/02 14:23:10;;;;;;;5.53;3.60;;;6.70;99.90;;;;;;10452299;28;20233;-72
2022/04/02 14:28:26;;;;;;;7.37;3.33;;;6.60;99.90;;;;;;10460242;28;20222;-72
2022/04/02 14:34:15;;;;;;;3.47;3.10;;;6.30;99.70;;;;;;10448591;28;20270;-73
2022/04/02 14:39:44;;;;;;;5.60;3.70;;;6.30;99.90;;;;;;10437488;28;20222;-72
2022/04/02 14:45:15;;;;;;;4.63;3.20;;;6.30;99.20;;;;;;10454620;28;20216;-72
2022/04/02 14:50:54;;;;;;;5.03;3.37;;;6.50;99.80;;;;;;10451271;28;20228;-70
2022/04/02 14:56:11;;;;;;;4.37;3.07;;;6.70;98.60;;;;;;10450632;28;20247;-72
2022/04/02 15:01:57;;;;;;;8.20;3.40;;;6.50;97.50;;;;;;10449539;28;20675;-71
2022/04/02 15:07:25;;;;;;;5.17;3.40;;;6.40;97.70;;;;;;10451131;28;20212;-71
2022/04/02 15:12:26;;;;;;;5.27;3.00;;;6.20;97.00;;;;;;10455293;28;20235;-71
2022/04/02 15:17:36;;;;;;;4.83;3.43;;;6.00;97.80;;;;;;10447930;28;20232;-71
2022/04/02 15:22:37;;;;;;;4.43;3.30;;;6.00;98.90;;;;;;10451700;28;20318;-71
2022/04/02 15:27:51;;;;;;;4.20;3.00;;;5.90;98.50;;;;;;10446077;28;20233;-70
2022/04/02 15:33:04;;;;;;;3.43;3.00;;;5.70;98.90;;;;;;10451488;28;20251;-72
2022/04/02 15:38:13;;;;;;;4.03;2.83;;;5.70;99.00;;;;;;10452657;28;20210;-71
2022/04/02 15:43:20;;;;;;;4.23;3.07;;;5.80;99.20;;;;;;10448921;28;20247;-71
2022/04/02 15:48:58;;;;;;;4.37;3.03;;;5.60;98.50;;;;;;10449263;28;20216;-71
2022/04/02 15:54:32;;;;;;;4.67;3.07;;;5.60;98.80;;;;;;10441924;28;20679;-71
2022/04/02 15:59:35;;;;;;;3.77;2.87;;;5.60;99.50;;;;;;10442262;28;20787;-71
2022/04/02 16:04:35;;;;;;;5.23;3.10;;;5.50;99.90;;;;;;10458768;28;20229;-70
2022/04/02 16:10:02;;;;;;;5.57;3.77;;;5.50;99.90;;;;;;10456216;28;20218;-70
2022/04/02 16:15:29;;;;;;;4.17;3.70;;;5.50;99.90;;;;;;10456570;28;20216;-71
2022/04/02 16:20:30;;;;;;;6.20;3.80;;;5.40;99.90;;;;;;10461151;28;20295;-70
2022/04/02 16:25:30;;;;;;;4.20;3.63;;;5.50;99.90;;;;;;10458249;28;20353;-70
2022/04/02 16:30:31;;;;;;;7.57;3.80;;;5.40;99.90;;;;;;10458275;28;20216;-70
2022/04/02 16:35:32;;;;;;;6.13;3.97;;;5.30;99.90;;;;;;10460337;28;20219;-71
2022/04/02 16:40:33;;;;;;;5.97;3.97;;;5.40;99.90;;;;;;10455229;28;20216;-71
2022/04/02 16:45:33;;;;;;;5.13;3.63;;;5.20;99.90;;;;;;10455862;28;20281;-71
2022/04/02 16:50:34;;;;;;;4.97;3.63;;;5.20;99.90;;;;;;10454140;28;20215;-71
2022/04/02 16:55:34;;;;;;;4.80;3.90;;;5.10;99.90;;;;;;10451655;28;20265;-71
2022/04/02 17:00:35;;;;;;;5.83;3.80;;;4.90;99.90;;;;;;10457858;28;20220;-70
2022/04/02 17:05:39;;;;;;;5.87;3.90;;;4.90;99.90;;;;;;10453990;28;20227;-71
2022/04/02 17:10:39;;;;;;;6.83;3.87;;;4.80;99.90;;;;;;10455840;28;20208;-71
2022/04/02 17:16:13;;;;;;;5.83;3.17;;;4.80;99.90;;;;;;10457610;28;20223;-71
2022/04/02 17:21:14;;;;;;;3.70;3.10;;;4.70;99.90;;;;;;10453394;28;20220;-71
2022/04/02 17:26:26;;;;;;;5.20;4.00;;;4.60;99.90;;;;;;10457583;28;20224;-71
2022/04/02 17:31:32;;;;;;;7.13;4.00;;;4.60;99.90;;;;;;10449577;28;20223;-71
2022/04/02 17:36:33;;;;;;;5.30;4.10;;;4.50;99.90;;;;;;10458923;28;20215;-71
2022/04/02 17:41:35;;;;;;;4.53;3.43;;;4.40;99.90;;;;;;10452895;28;20272;-71
2022/04/02 17:46:36;;;;;;;5.77;4.00;;;4.40;99.90;;;;;;10456304;28;20782;-69
2022/04/02 17:51:39;;;;;;;7.20;4.60;;;4.40;99.90;;;;;;10455375;28;20237;-69
2022/04/02 17:56:39;;;;;;;6.10;4.10;;;4.40;99.90;;;;;;10454683;28;20242;-69
2022/04/02 18:01:41;;;;;;;5.25;4.35;;;4.40;99.90;;;;;;10453225;28;20224;-70
2022/04/02 18:06:44;;;;;;;7.60;5.07;;;4.40;99.90;;;;;;10458634;28;20219;-70
2022/04/02 18:11:45;;;;;;;5.90;4.50;;;4.30;99.90;;;;;;10448031;28;20251;-70
2022/04/02 18:16:46;;;;;;;4.13;3.70;;;4.30;99.90;;;;;;10454503;28;20314;-70
2022/04/02 18:21:47;;;;;;;4.30;3.90;;;4.20;99.90;;;;;;10445298;28;20214;-70
2022/04/02 18:26:48;;;;;;;4.73;3.27;;;4.20;99.90;;;;;;10454148;28;20228;-69
2022/04/02 18:31:48;;;;;;;4.13;3.60;;;4.30;99.90;;;;;;10449259;28;20658;-69
2022/04/02 18:36:50;;;;;;;4.77;3.80;;;4.20;99.90;;;;;;10474758;28;20223;-69
2022/04/02 18:41:54;;;;;;;4.17;3.17;;;4.20;99.90;;;;;;10451541;28;20226;-70
2022/04/02 18:46:56;;;;;;;5.00;3.43;;;4.20;99.90;;;;;;10469335;28;20713;-69
2022/04/02 18:51:58;;;;;;;5.57;3.80;;;4.20;99.90;;;;;;10464275;28;20235;-70
2022/04/02 18:56:58;;;;;;;3.87;3.20;;;4.10;99.90;;;;;;10452482;28;20598;-72
2022/04/02 19:01:59;;;;;;;6.10;4.90;;;4.10;99.90;;;;;;10451529;28;20228;-72
2022/04/02 19:07:00;;;;;;;6.77;3.60;;;4.20;99.90;;;;;;10458949;28;20216;-73
2022/04/02 19:12:01;;;;;;;5.17;3.77;;;4.20;99.90;;;;;;10454188;28;20220;-72
2022/04/02 19:17:02;;;;;;;6.10;3.90;;;4.20;99.90;;;;;;10460337;28;20303;-71
2022/04/02 19:22:04;;;;;;;4.70;4.00;;;4.10;99.90;;;;;;10456283;28;20215;-71
2022/04/02 19:27:05;;;;;;;6.30;4.90;;;4.10;99.90;;;;;;10461217;28;20224;-72
2022/04/02 19:32:06;;;;;;;7.20;5.10;;;4.10;99.90;;;;;;10458337;28;20226;-68
2022/04/02 19:37:06;;;;;;;5.37;3.90;;;4.10;99.90;;;;;;10462664;28;20230;-72
2022/04/02 19:42:08;;;;;;;4.83;3.87;;;4.10;99.90;;;;;;10454589;28;20231;-71
2022/04/02 19:47:08;;;;;;;4.37;3.67;;;4.10;99.90;;;;;;10449585;28;20250;-70
2022/04/02 19:52:09;;;;;;;4.50;3.83;;;4.10;99.90;;;;;;10456108;28;20705;-70
2022/04/02 19:57:10;;;;;;;8.00;4.20;;;4.10;99.90;;;;;;10452758;28;20254;-70
2022/04/02 20:02:11;;;;;;;6.20;4.13;;;4.10;99.90;;;;;;10455658;28;20248;-70
2022/04/02 20:07:12;;;;;;;4.20;3.80;;;4.10;99.90;;;;;;10456149;28;20237;-70
2022/04/02 20:12:13;;;;;;;6.13;4.20;;;4.10;99.90;;;;;;10452665;28;20619;-71
2022/04/02 20:17:13;;;;;;;5.10;3.80;;;4.10;99.90;;;;;;10454737;28;20223;-70
2022/04/02 20:22:14;;;;;;;5.17;4.13;;;4.10;99.90;;;;;;10454249;28;20234;-71
2022/04/02 20:27:17;;;;;;;4.93;4.17;;;4.10;99.90;;;;;;10460576;28;20659;-71
2022/04/02 20:32:18;;;;;;;6.83;4.40;;;4.00;99.90;;;;;;10454529;28;20261;-71
2022/04/02 20:37:19;;;;;;;7.17;4.60;;;4.00;99.90;;;;;;10456589;28;20251;-71
2022/04/02 20:42:20;;;;;;;5.50;4.20;;;4.00;99.90;;;;;;10477434;28;20250;-71
2022/04/02 20:47:21;;;;;;;5.90;4.37;;;4.00;99.90;;;;;;10453877;28;20204;-71
2022/04/02 20:52:26;;;;;;;6.07;4.37;;;4.00;99.90;;;;;;10455200;28;20274;-71
2022/04/02 20:57:27;;;;;;;4.77;3.97;;;4.00;99.90;;;;;;10454161;28;20223;-71
2022/04/02 21:02:27;;;;;;;6.90;4.03;;;4.00;99.90;;;;;;10456368;28;20718;-70
2022/04/02 21:07:28;;;;;;;7.87;6.10;;;4.10;99.90;;;;;;10456020;28;20243;-70
2022/04/02 21:12:29;;;;;;;6.87;4.33;;;4.10;99.90;;;;;;10454320;28;20223;-70
2022/04/02 21:17:29;;;;;;;6.57;4.93;;;4.10;99.90;;;;;;10446667;28;20226;-72
2022/04/02 21:22:31;;;;;;;7.43;4.30;;;4.00;99.90;;;;;;10451537;28;20223;-70
2022/04/02 21:27:32;;;;;;;5.77;5.03;;;4.00;99.90;;;;;;10454644;28;20303;-70
2022/04/02 21:32:33;;;;;;;6.70;4.57;;;4.00;99.90;;;;;;10443740;28;20308;-71
2022/04/02 21:37:34;;;;;;;5.13;4.13;;;4.00;99.90;;;;;;10452124;28;20253;-70
2022/04/02 21:42:35;;;;;;;4.67;4.10;;;4.00;99.90;;;;;;10454651;28;20228;-71
2022/04/02 21:47:39;;;;;;;8.30;4.47;;;4.00;99.90;;;;;;10459524;28;20569;-71
2022/04/02 21:52:39;;;;;;;8.03;3.93;;;3.90;99.90;;;;;;10452780;28;20258;-70
2022/04/02 21:57:40;;;;;;;5.23;3.87;;;3.80;99.90;;;;;;10450459;28;20372;-69
2022/04/02 22:02:41;;;;;;;5.93;4.50;;;3.70;99.90;;;;;;10454255;28;20224;-68
2022/04/02 22:07:43;;;;;;;5.10;3.70;;;3.60;99.90;;;;;;10450067;28;20686;-69
2022/04/02 22:12:44;;;;;;;5.27;3.40;;;3.50;99.90;;;;;;10452173;28;20219;-70
2022/04/02 22:17:44;;;;;;;6.50;3.90;;;3.40;99.90;;;;;;10446939;28;20744;-69
2022/04/02 22:22:48;;;;;;;6.07;4.50;;;3.40;99.90;;;;;;10463961;28;20245;-69
2022/04/02 22:27:48;;;;;;;7.30;4.40;;;3.40;99.90;;;;;;10455742;28;20656;-69
2022/04/02 22:32:49;;;;;;;5.00;4.40;;;3.40;99.90;;;;;;10452302;28;20212;-69
2022/04/02 22:37:50;;;;;;;4.97;4.47;;;3.40;99.90;;;;;;10452293;28;20216;-69
2022/04/02 22:42:51;;;;;;;5.70;4.10;;;3.50;99.90;;;;;;10452174;28;20238;-70
2022/04/02 22:47:51;;;;;;;8.70;4.93;;;3.50;99.90;;;;;;10451485;28;20717;-69
2022/04/02 22:52:53;;;;;;;7.17;5.00;;;3.50;99.90;;;;;;10451702;28;20842;-69
2022/04/02 22:57:53;;;;;;;5.40;4.33;;;3.40;99.90;;;;;;10450366;28;20289;-70
2022/04/02 23:02:54;;;;;;;6.03;4.90;;;3.40;99.90;;;;;;10453856;28;20220;-69
2022/04/02 23:07:55;;;;;;;8.17;4.93;;;3.30;99.90;;;;;;10483174;28;20300;-69
2022/04/02 23:12:56;;;;;;;5.83;4.77;;;3.20;99.90;;;;;;10462538;28;20257;-70
2022/04/02 23:17:57;;;;;;;6.10;4.47;;;3.10;99.90;;;;;;10450302;28;20219;-70
2022/04/02 23:22:57;;;;;;;6.30;5.10;;;3.10;99.90;;;;;;10448239;28;20249;-70
2022/04/02 23:27:58;;;;;;;6.87;5.10;;;3.00;99.90;;;;;;10447217;28;20623;-70
2022/04/02 23:32:59;;;;;;;6.90;4.80;;;2.90;99.90;;;;;;10450002;28;20255;-68
2022/04/02 23:38:00;;;;;;;6.47;5.10;;;2.80;99.90;;;;;;10434322;28;20249;-69
2022/04/02 23:43:00;;;;;;;7.00;5.37;;;2.80;99.90;;;;;;10451011;28;20245;-69
2022/04/02 23:48:02;;;;;;;7.20;4.97;;;2.80;99.90;;;;;;10453776;28;20590;-69
2022/04/02 23:53:03;;;;;;;11.70;5.50;;;2.80;99.90;;;;;;10443940;28;20638;-69
2022/04/02 23:58:04;;;;;;;7.03;4.93;;;2.70;99.90;;;;;;10447293;28;20279;-69
